St Pierre — FIDX — position and weather

sailwx.info

Track history (hours):
 
Tides and Currents Weather Stations Pressure Air Temp Water Temp Dewpoint Dewpoint Depression Visibility Wind Speed Wind Dir Waves Ship Positions

St Pierre

Last reported at 2015-May-26 01:20 UTC. Time now 2015-May-26 01:37 UTC.
Position N 47°12' W 001°37'.

Length 84 m; draft 6.2 m.

Type: Cargo ship. MMSI: 228024800.

Date/timePositionNaut miles runAvg speedWind from/ knotsBaromVisibWave heightAir tempDewpointWater temp
2015-May-26 01:20N 47°12' W 001°37'0 0.0
2015-May-26 00:10N 47°12' W 001°37'0 0.0
2015-May-25 23:22N 47°12' W 001°37'0 0.0
2015-May-25 22:08N 47°12' W 001°37'0 0.0
2015-May-25 21:29N 47°12' W 001°37'0 0.0
2015-May-25 20:03N 47°12' W 001°37'0 0.0
2015-May-25 18:28N 47°12' W 001°37'0 0.0
2015-May-25 11:24N 47°12' W 001°37'0 0.0
2015-May-25 10:25N 47°12' W 001°37'0 0.0
2015-May-25 08:33N 47°12' W 001°37'0 0.0
2015-May-25 07:32N 47°12' W 001°37'0 0.0
2015-May-25 06:32N 47°12' W 001°37'0 0.0
2015-May-25 05:27N 47°12' W 001°37'0 0.0
2015-May-25 01:07N 47°12' W 001°37'3220.3
2015-May-24 23:32N 47°44' W 001°42'32 2.0
2015-May-24 07:10N 47°12' W 001°37'0 0.0
2015-May-24 06:33N 47°12' W 001°37'0 0.0
2015-May-24 05:33N 47°12' W 001°37'0 0.0
2015-May-24 04:17N 47°12' W 001°37'0 0.0
2015-May-24 02:33N 47°12' W 001°37'0 0.0
2015-May-24 01:31N 47°12' W 001°37'0 0.0
2015-May-24 00:26N 47°12' W 001°37'0 0.0
2015-May-23 06:28N 47°12' W 001°37'0 0.0
2015-May-23 05:32N 47°12' W 001°37'11 0.4
2015-May-22 04:33N 47°16' W 001°52'23 4.2
2015-May-21 23:06N 47°05' W 002°22'0 0.3
2015-May-21 22:27N 47°05' W 002°22'1011.4
2015-May-21 21:33N 47°14' W 002°16'1311.6
2015-May-21 20:28N 47°17' W 001°57'  
2015-May-18 08:23N 47°12' W 001°37'0 0.0
2015-May-18 07:30N 47°12' W 001°37'0 0.0
2015-May-18 06:04N 47°12' W 001°37'0 0.0
2015-May-18 05:29N 47°12' W 001°37'0 0.0
2015-May-18 04:33N 47°12' W 001°37'0 0.0
2015-May-18 03:05N 47°12' W 001°37'0 0.0
2015-May-18 02:32N 47°12' W 001°37'0 0.0
2015-May-18 01:32N 47°12' W 001°37'0 0.0
2015-May-18 00:29N 47°12' W 001°37'0 0.0
2015-May-17 23:33N 47°12' W 001°37'0 0.0
2015-May-17 22:33N 47°12' W 001°37'0 0.0
2015-May-17 21:33N 47°12' W 001°37'0 0.0
2015-May-17 20:28N 47°12' W 001°37'0 0.0
2015-May-17 19:18N 47°12' W 001°37'0 0.0
2015-May-17 11:11N 47°12' W 001°37'0 0.0
2015-May-17 10:04N 47°12' W 001°37'0 0.0
2015-May-17 08:18N 47°12' W 001°37'0 0.0
2015-May-17 07:32N 47°12' W 001°37'0 0.0
2015-May-17 06:16N 47°12' W 001°37'0 0.0
2015-May-17 04:25N 47°12' W 001°37'0 0.0
2015-May-17 03:32N 47°12' W 001°37'0 0.0
2015-May-17 02:33N 47°12' W 001°37'0 0.0
2015-May-17 01:19N 47°12' W 001°37'0 0.0
2015-May-17 00:27N 47°12' W 001°37'0 0.0
2015-May-16 23:23N 47°12' W 001°37'0 0.0
2015-May-16 21:33N 47°12' W 001°37'0 0.0
2015-May-16 19:25N 47°12' W 001°37'0 0.0
2015-May-16 05:08N 47°12' W 001°37'0 0.0
2015-May-16 04:25N 47°12' W 001°37'  
Track history (hours):
 
Tides and Currents Weather Stations Pressure Air Temp Water Temp Dewpoint Dewpoint Depression Visibility Wind Speed Wind Dir Waves Ship Positions

St Pierre

Last reported at 2015-May-26 01:20 UTC. Time now 2015-May-26 01:37 UTC.
Position N 47°12' W 001°37'.

Length 84 m; draft 6.2 m.

Type: Cargo ship. MMSI: 228024800.

Date/timePositionNaut miles runAvg speedWind from/ knotsBaromVisibWave heightAir tempDewpointWater temp
2015-May-26 01:20N 47°12' W 001°37'0 0.0
2015-May-26 00:10N 47°12' W 001°37'0 0.0
2015-May-25 23:22N 47°12' W 001°37'0 0.0
2015-May-25 22:08N 47°12' W 001°37'0 0.0
2015-May-25 21:29N 47°12' W 001°37'0 0.0
2015-May-25 20:03N 47°12' W 001°37'0 0.0
2015-May-25 18:28N 47°12' W 001°37'0 0.0
2015-May-25 11:24N 47°12' W 001°37'0 0.0
2015-May-25 10:25N 47°12' W 001°37'0 0.0
2015-May-25 08:33N 47°12' W 001°37'0 0.0
2015-May-25 07:32N 47°12' W 001°37'0 0.0
2015-May-25 06:32N 47°12' W 001°37'0 0.0
2015-May-25 05:27N 47°12' W 001°37'0 0.0
2015-May-25 01:07N 47°12' W 001°37'3220.3
2015-May-24 23:32N 47°44' W 001°42'32 2.0
2015-May-24 07:10N 47°12' W 001°37'0 0.0
2015-May-24 06:33N 47°12' W 001°37'0 0.0
2015-May-24 05:33N 47°12' W 001°37'0 0.0
2015-May-24 04:17N 47°12' W 001°37'0 0.0
2015-May-24 02:33N 47°12' W 001°37'0 0.0
2015-May-24 01:31N 47°12' W 001°37'0 0.0
2015-May-24 00:26N 47°12' W 001°37'0 0.0
2015-May-23 06:28N 47°12' W 001°37'0 0.0
2015-May-23 05:32N 47°12' W 001°37'11 0.4
2015-May-22 04:33N 47°16' W 001°52'23 4.2
2015-May-21 23:06N 47°05' W 002°22'0 0.3
2015-May-21 22:27N 47°05' W 002°22'1011.4
2015-May-21 21:33N 47°14' W 002°16'1311.6
2015-May-21 20:28N 47°17' W 001°57'  
2015-May-18 08:23N 47°12' W 001°37'0 0.0
2015-May-18 07:30N 47°12' W 001°37'0 0.0
2015-May-18 06:04N 47°12' W 001°37'0 0.0
2015-May-18 05:29N 47°12' W 001°37'0 0.0
2015-May-18 04:33N 47°12' W 001°37'0 0.0
2015-May-18 03:05N 47°12' W 001°37'0 0.0
2015-May-18 02:32N 47°12' W 001°37'0 0.0
2015-May-18 01:32N 47°12' W 001°37'0 0.0
2015-May-18 00:29N 47°12' W 001°37'0 0.0
2015-May-17 23:33N 47°12' W 001°37'0 0.0
2015-May-17 22:33N 47°12' W 001°37'0 0.0
2015-May-17 21:33N 47°12' W 001°37'0 0.0
2015-May-17 20:28N 47°12' W 001°37'0 0.0
2015-May-17 19:18N 47°12' W 001°37'0 0.0
2015-May-17 11:11N 47°12' W 001°37'0 0.0
2015-May-17 10:04N 47°12' W 001°37'0 0.0
2015-May-17 08:18N 47°12' W 001°37'0 0.0
2015-May-17 07:32N 47°12' W 001°37'0 0.0
2015-May-17 06:16N 47°12' W 001°37'0 0.0
2015-May-17 04:25N 47°12' W 001°37'0 0.0
2015-May-17 03:32N 47°12' W 001°37'0 0.0
2015-May-17 02:33N 47°12' W 001°37'0 0.0
2015-May-17 01:19N 47°12' W 001°37'0 0.0
2015-May-17 00:27N 47°12' W 001°37'0 0.0
2015-May-16 23:23N 47°12' W 001°37'0 0.0
2015-May-16 21:33N 47°12' W 001°37'0 0.0
2015-May-16 19:25N 47°12' W 001°37'0 0.0
2015-May-16 05:08N 47°12' W 001°37'0 0.0
2015-May-16 04:25N 47°12' W 001°37'  

Dump ship's entire track history